Nearby METAR Reports

 

TNCA - Queen Beatrix, Lesser Antilles
Distance from station: 0 0km
Updated: 20/07/2018 23:00
Few Clouds
Few Clouds
 Wind from E
Wind: E 28 km/h
Temperature: 28°C
Heat Index: 32°C
Dew Point: 24°C
Humidity: 79%
Barometer: 1013 hPa
Clouds: Few Clouds
Visibility: 10 km
Cloud details: Few Clouds 549 m
2018/07/21 03:00 TNCA 210300Z 09015KT 9999 FEW018 28/24 Q1013 NOSIG
SVJC - Paraguana/Josefa, Venezuela
Distance from station: S 83km
Updated: 23/06/2018 06:00
NOT Current

 
2018/06/23 10:00 SVJC 231000Z NI
 
TNCC - Hato Air Curacao, Lesser Antilles
Distance from station: ESE 117km
Updated: 20/07/2018 23:00
Partly Cloudy
Partly Cloudy
 Wind from E
Wind: E 22 km/h
Temperature: 27°C
Heat Index: 30°C
Dew Point: 23°C
Humidity: 79%
Barometer: 1014 hPa
Clouds: Partly Cloudy
Visibility: 10 km
2018/07/21 03:00 TNCC 210300Z AUTO 10012KT 9999 NSC 27/23 Q1014 NOSIG
SVCR - Coro/Jose Leonar, Venezuela
Distance from station: SSE 126km
Updated: 20/07/2018 21:00
NOT Current
Few Clouds
Few Clouds
 Wind from varies
Wind: varies 0 km/h
Temperature: 29°C
Heat Index: 32°C
Dew Point: 22°C
Humidity: 66%
Barometer: 1012 hPa
Clouds: Few Clouds
Visibility: 10 km
Cloud details: Few Clouds 488 m
2018/07/21 01:00 SVCR 210100Z /////KT 9999 FEW016 29/22 Q1012
 
TNCB - Bonaire/Flamingo, Lesser Antilles
Distance from station: ESE 191km
Updated: 20/07/2018 22:55
Few Clouds
Few Clouds
 Wind from E
Wind: E 30 km/h
Temperature: 28°C
Heat Index: 32°C
Dew Point: 24°C
Humidity: 79%
Barometer: 1013 hPa
Clouds: Few Clouds
Cloud details: Few Clouds 457 m
2018/07/21 02:55 TNCB 210255Z AUTO 08016KT //// // FEW015/// 28/24 Q1013 RE//
SVMC - Maracaibo/La Chi, Venezuela
Distance from station: SW 285km
Updated: 20/07/2018 23:00
Partly Cloudy
Partly Cloudy
 Wind from N
Wind: N 2 km/h
Temperature: 28°C
Heat Index: 34°C
Dew Point: 27°C
Humidity: 94%
Barometer: 1011 hPa
Clouds: Partly Cloudy
Visibility: 10 km
Cloud details: Partly Cloudy 396 m
2018/07/21 03:00 SVMC 210300Z 36001KT 9999 SCT013 28/27 Q1011